Saint Stephen, SC (29479)

2:55 PM EDT on May 25, 2015 (GMT -0400)
Moncks Corner | | Change Station
CLOSE
Current Station
Airport
Location: Moncks Corner,
Elevation: 72 ft
Nearby Weather Stations

Elev 72 ft 33.19 °N, 80.04 °W | Updated 20 minutes ago

Overcast
Overcast
81 °F
Feels Like 82 °F
N
7
Wind Variable Wind from SSE

Today
High -- | Low -- °F
--% Chance of Precip.
Yesterday
High -- | Low -- °F
Precip. -- in
6:13 AM 8:19 PM
Waxing Crescent, 51% visible
Pressure 30.29 in
Visibility 7.0 miles
Clouds Overcast 4800 ft
Heat Index 82 °F
Dew Point 64 °F
Humidity 58%
Rainfall 0.00 in
Snow Depth Not available.
UV 3 out of 12
Pollen 6.30 out of 12
Air Quality Not available.
Flu Activity Local Activity
METAR KMKS 251835Z AUTO 15006KT 7SM OVC048 27/18 A3029 RMK AO2

More Conditions Fewer Conditions

Pressure 30.29 in
Visibility 7.0 miles
Clouds Overcast 4800 ft
Heat Index 82 °F
Dew Point 64 °F
Humidity 58%
Rainfall 0.00 in
Snow Depth Not available.
UV 3 out of 12
Pollen 6.30 out of 12
Air Quality Not available.
Flu Activity Local Activity
METAR KMKS 251835Z AUTO 15006KT 7SM OVC048 27/18 A3029 RMK AO2

More Conditions Fewer Conditions

10-Day Weather Forecast

Almanac

Astronomy

May. 25, 2015 Rise Set
Actual Time
Civil Twilight
Nautical Twilight
Astronomical Twilight
Moon
Length of Visible Light
Length of Day
Tomorrow will be .
, % of the Moon is Illuminated

Today's Extremes

State Highs State Lows

Community

WunderPhotos

Upload Photos

1,824,080 photos uploaded!

WunderBlogs® & News

Nearby

Air Quality

  Air Quality AQ Index Pollutant
Not available.

Snow Depth

Station Depth Elevation

Earthquake Activity

City Distance Mag. Time & Date
Minimum magnitude displayed is 2.5.

Coastal Water Temperatures

Place Temperature

Stations

Nearby Weather Stations

Station Location Temp. Windchill Dew Point Humidity Wind Precip. Elev Updated Type